SBCT/CWB METAR and TAF weather

Enter ICAO airport designator
Station Type Date Time Source
SBCT METAR 2021/08/04 20:00 UTC NOAA

SBCT 042000Z 12007KT 9999 BKN010 13/11 Q1029


Station Type Date Time Source
SBCT Decoded METAR 2021/08/04 20:00 UTC NOAA

Curitiba Aeroporto , Brazil (SBCT) 25-31S 049-10W 908M
Aug 04, 2021 - 04:00 PM EDT / 2021.08.04 2000 UTC
Wind: from the ESE (120 degrees) at 8 MPH (7 KT):0
Visibility: greater than 7 mile(s):0
Sky conditions: mostly cloudy
Temperature: 55 F (13 C)
Dew Point: 51 F (11 C)
Relative Humidity: 87%
Pressure (altimeter): 30.39 in. Hg (1029 hPa)
ob: SBCT 042000Z 12007KT 9999 BKN010 13/11 Q1029
cycle: 20

Station Type Date Time Source
SBCT TAF 2021/08/04 18:30 UTC NOAA

TAF SBCT 041500Z 0418/0518 13009KT 8000 BKN015 TX16/0418Z TN07/0509Z PROB40 0418/0420 BKN012 PROB40 0422/0506 BKN008 PROB40 0507/0512 2000 BR BKN005 PROB30 0513/0515 BKN010
RMK PEI

Example: see airport list